createdAt,value
2019-05-02T00:00:39.842Z,6.75
2019-05-02T00:01:36.244Z,6.69
2019-05-02T00:02:36.163Z,6.58
2019-05-02T00:03:41.202Z,6.58
2019-05-02T00:04:35.988Z,6.61
2019-05-02T00:05:35.918Z,6.54
2019-05-02T00:06:38.044Z,6.69
2019-05-02T00:07:35.766Z,6.57
2019-05-02T00:08:35.657Z,6.54
2019-05-02T00:09:35.677Z,6.51
2019-05-02T00:10:35.497Z,6.51
2019-05-02T00:11:35.405Z,6.50
2019-05-02T00:12:35.388Z,6.48
2019-05-02T00:13:35.231Z,6.39
2019-05-02T00:14:35.158Z,6.54
2019-05-02T00:15:38.292Z,6.46
2019-05-02T00:16:34.974Z,6.51
2019-05-02T00:17:34.885Z,6.48
2019-05-02T00:18:37.227Z,6.39
2019-05-02T00:19:34.718Z,6.42
2019-05-02T00:20:34.646Z,6.45
2019-05-02T00:21:37.840Z,6.40
2019-05-02T00:22:34.461Z,6.33
2019-05-02T00:23:34.373Z,6.38
2019-05-02T00:24:39.365Z,6.45
2019-05-02T00:25:34.495Z,6.43
2019-05-02T00:26:34.122Z,6.46
2019-05-02T00:27:37.771Z,6.38
2019-05-02T00:28:33.963Z,6.36
2019-05-02T00:29:33.971Z,6.32
2019-05-02T00:30:34.580Z,6.25
2019-05-02T00:31:33.812Z,6.36
2019-05-02T00:32:33.609Z,6.30
2019-05-02T00:33:34.340Z,6.30
2019-05-02T00:34:33.446Z,6.20
2019-05-02T00:35:33.399Z,6.17
2019-05-02T00:36:33.287Z,6.24
2019-05-02T00:37:33.206Z,6.33
2019-05-02T00:38:33.454Z,6.20
2019-05-02T00:39:33.125Z,6.27
2019-05-02T00:40:32.935Z,6.21
2019-05-02T00:41:37.869Z,6.24
2019-05-02T00:42:34.783Z,6.16
2019-05-02T00:43:34.474Z,6.14
2019-05-02T00:44:32.592Z,5.99
2019-05-02T00:45:32.548Z,6.10
2019-05-02T00:46:34.946Z,6.10
2019-05-02T00:47:32.333Z,6.06
2019-05-02T00:48:33.287Z,6.01
2019-05-02T00:49:35.534Z,6.03
2019-05-02T00:50:32.176Z,6.03
2019-05-02T00:51:32.007Z,5.98
2019-05-02T00:52:32.901Z,5.96
2019-05-02T00:53:32.914Z,5.92
2019-05-02T00:54:31.744Z,5.93
2019-05-02T00:55:33.913Z,5.90
2019-05-02T00:56:31.623Z,5.93
2019-05-02T00:57:31.483Z,5.93
2019-05-02T00:58:31.936Z,5.90
2019-05-02T00:59:42.450Z,5.90
2019-05-02T01:00:31.225Z,5.80
2019-05-02T01:01:31.194Z,5.84
2019-05-02T01:02:31.053Z,5.90
2019-05-02T01:03:32.050Z,5.87
2019-05-02T01:04:30.892Z,5.75
2019-05-02T01:05:33.817Z,5.84
2019-05-02T01:06:30.730Z,5.80
2019-05-02T01:07:30.629Z,5.77
2019-05-02T01:08:30.961Z,5.78
2019-05-02T01:09:30.461Z,5.74
2019-05-02T01:10:30.374Z,5.75
2019-05-02T01:11:32.109Z,5.63
2019-05-02T01:12:30.211Z,5.70
2019-05-02T01:13:30.117Z,5.70
2019-05-02T01:14:31.841Z,5.67
2019-05-02T01:15:29.946Z,5.69
2019-05-02T01:16:29.877Z,5.69
2019-05-02T01:17:31.062Z,5.59
2019-05-02T01:18:29.690Z,5.59
2019-05-02T01:19:29.606Z,5.66
2019-05-02T01:20:29.614Z,5.62
2019-05-02T01:21:34.084Z,5.55
2019-05-02T01:22:29.351Z,5.60
2019-05-02T01:23:29.527Z,5.51
2019-05-02T01:24:29.185Z,5.62
2019-05-02T01:25:29.135Z,5.56
2019-05-02T01:26:29.402Z,5.69
2019-05-02T01:27:28.946Z,5.65
2019-05-02T01:28:28.957Z,5.58
2019-05-02T01:29:29.786Z,5.52
2019-05-02T01:30:28.668Z,5.62
2019-05-02T01:31:28.663Z,5.59
2019-05-02T01:32:30.144Z,5.65
2019-05-02T01:33:28.410Z,5.60
2019-05-02T01:34:30.443Z,5.48
2019-05-02T01:35:31.501Z,5.52
2019-05-02T01:36:28.154Z,5.56
2019-05-02T01:37:28.122Z,5.59
2019-05-02T01:38:31.979Z,5.51
2019-05-02T01:39:28.005Z,5.58
2019-05-02T01:40:27.812Z,5.56
2019-05-02T01:41:29.350Z,5.47
2019-05-02T01:42:39.283Z,5.59
2019-05-02T01:43:27.629Z,5.55
2019-05-02T01:44:31.136Z,5.65
2019-05-02T01:45:27.434Z,5.63
2019-05-02T01:46:27.299Z,5.52
2019-05-02T01:47:29.046Z,5.56
2019-05-02T01:48:27.143Z,5.56
2019-05-02T01:49:27.045Z,5.58
2019-05-02T01:50:28.971Z,5.58
2019-05-02T01:51:26.959Z,5.55
2019-05-02T01:52:26.801Z,5.56
2019-05-02T01:53:29.138Z,5.55
2019-05-02T01:54:26.673Z,5.58
2019-05-02T01:55:26.537Z,5.56
2019-05-02T01:56:28.511Z,5.45
2019-05-02T01:57:30.829Z,5.45
2019-05-02T01:58:26.278Z,5.45
2019-05-02T01:59:29.140Z,5.47
2019-05-02T02:00:26.130Z,5.35
2019-05-02T02:01:26.119Z,5.42
2019-05-02T02:02:28.189Z,5.41
2019-05-02T02:03:25.851Z,5.48
2019-05-02T02:04:25.822Z,5.38
2019-05-02T02:05:27.646Z,5.44
2019-05-02T02:06:25.590Z,5.33
2019-05-02T02:07:25.570Z,5.38
2019-05-02T02:08:27.240Z,5.38
2019-05-02T02:09:25.342Z,5.45
2019-05-02T02:10:25.249Z,5.35
2019-05-02T02:11:28.293Z,5.33
2019-05-02T02:12:25.094Z,5.37
2019-05-02T02:13:25.063Z,5.30
2019-05-02T02:14:24.911Z,5.35
2019-05-02T02:15:31.834Z,5.29
2019-05-02T02:16:24.738Z,5.33
2019-05-02T02:17:24.665Z,5.42
2019-05-02T02:18:27.737Z,5.35
2019-05-02T02:19:24.482Z,5.30
2019-05-02T02:20:24.395Z,5.40
2019-05-02T02:21:27.372Z,5.35
2019-05-02T02:22:24.240Z,5.38
2019-05-02T02:23:24.140Z,5.32
2019-05-02T02:24:25.247Z,5.30
2019-05-02T02:25:23.968Z,5.35
2019-05-02T02:26:23.884Z,5.35
2019-05-02T02:27:24.559Z,5.45
2019-05-02T02:28:23.715Z,5.51
2019-05-02T02:29:23.637Z,5.47
2019-05-02T02:30:24.427Z,5.58
2019-05-02T02:31:23.547Z,5.48
2019-05-02T02:32:27.146Z,5.58
2019-05-02T02:33:23.290Z,5.58
2019-05-02T02:34:29.446Z,5.62
2019-05-02T02:35:23.122Z,5.60
2019-05-02T02:36:30.955Z,5.66
2019-05-02T02:37:22.977Z,5.70
2019-05-02T02:38:26.900Z,5.69
2019-05-02T02:39:22.788Z,5.80
2019-05-02T02:40:32.597Z,5.88
2019-05-02T02:41:22.699Z,5.92
2019-05-02T02:42:25.174Z,5.92
2019-05-02T02:43:33.432Z,5.92
2019-05-02T02:44:24.475Z,6.02
2019-05-02T02:45:22.262Z,6.14
2019-05-02T02:46:22.181Z,6.19
2019-05-02T02:47:22.140Z,6.20
2019-05-02T02:48:22.021Z,6.33
2019-05-02T02:49:24.396Z,6.39
2019-05-02T02:50:28.805Z,6.38
2019-05-02T02:51:24.546Z,6.45
2019-05-02T02:52:21.675Z,6.53
2019-05-02T02:53:24.073Z,6.53
2019-05-02T02:54:21.501Z,6.55
2019-05-02T02:55:24.274Z,6.58
2019-05-02T02:56:21.329Z,6.58
2019-05-02T02:57:26.659Z,6.65
2019-05-02T02:58:21.214Z,6.69
2019-05-02T02:59:26.168Z,6.65
2019-05-02T03:00:20.991Z,6.76
2019-05-02T03:01:28.896Z,6.79
2019-05-02T03:02:20.820Z,6.83
2019-05-02T03:03:27.614Z,6.89
2019-05-02T03:04:20.706Z,6.83
2019-05-02T03:05:26.292Z,6.87
2019-05-02T03:06:20.487Z,6.91
2019-05-02T03:07:26.110Z,6.94
2019-05-02T03:08:20.345Z,6.93
2019-05-02T03:09:26.584Z,6.91
2019-05-02T03:10:20.239Z,6.96
2019-05-02T03:11:23.523Z,6.87
2019-05-02T03:12:19.986Z,6.97
2019-05-02T03:13:21.670Z,6.97
2019-05-02T03:14:21.193Z,6.94
2019-05-02T03:15:20.836Z,7.07
2019-05-02T03:16:19.638Z,7.07
2019-05-02T03:17:26.029Z,7.04
2019-05-02T03:18:19.483Z,7.09
2019-05-02T03:19:21.310Z,7.07
2019-05-02T03:20:19.299Z,7.09
2019-05-02T03:21:20.433Z,7.15
2019-05-02T03:22:19.131Z,7.15
2019-05-02T03:23:21.794Z,7.11
2019-05-02T03:24:19.005Z,7.15
2019-05-02T03:25:27.053Z,7.18
2019-05-02T03:26:18.791Z,7.21
2019-05-02T03:27:18.875Z,7.26
2019-05-02T03:28:21.021Z,7.26
2019-05-02T03:29:18.546Z,7.32
2019-05-02T03:30:33.050Z,7.27
2019-05-02T03:31:24.620Z,7.36
2019-05-02T03:32:32.155Z,7.36
2019-05-02T03:33:18.305Z,7.30
2019-05-02T03:34:18.119Z,7.33
2019-05-02T03:35:19.390Z,7.37
2019-05-02T03:36:29.726Z,7.47
2019-05-02T03:37:17.874Z,7.37
2019-05-02T03:38:17.932Z,7.34
2019-05-02T03:39:17.781Z,7.47
2019-05-02T03:40:17.615Z,7.48
2019-05-02T03:41:20.528Z,7.50
2019-05-02T03:42:17.488Z,7.58
2019-05-02T03:43:19.044Z,7.47
2019-05-02T03:44:24.626Z,7.55
2019-05-02T03:45:17.194Z,7.52
2019-05-02T03:46:20.510Z,7.58
2019-05-02T03:47:17.029Z,7.54
2019-05-02T03:48:18.124Z,7.50
2019-05-02T03:49:16.879Z,7.47
2019-05-02T03:50:16.837Z,7.55
2019-05-02T03:51:21.916Z,7.52
2019-05-02T03:52:16.638Z,7.58
2019-05-02T03:53:17.924Z,7.62
2019-05-02T03:54:19.849Z,7.60
2019-05-02T03:55:23.731Z,7.60
2019-05-02T03:56:16.287Z,7.62
2019-05-02T03:57:16.186Z,7.60
2019-05-02T03:58:17.089Z,7.62
2019-05-02T03:59:16.041Z,7.63
2019-05-02T04:00:20.964Z,7.51
2019-05-02T04:01:15.850Z,7.50
2019-05-02T04:02:20.372Z,7.51
2019-05-02T04:03:15.686Z,7.51
2019-05-02T04:04:20.482Z,7.52
2019-05-02T04:05:15.603Z,7.54
2019-05-02T04:06:21.175Z,7.52
2019-05-02T04:07:15.341Z,7.58
2019-05-02T04:08:20.975Z,7.67
2019-05-02T04:09:15.187Z,7.63
2019-05-02T04:10:20.215Z,7.63
2019-05-02T04:11:15.013Z,7.66
2019-05-02T04:12:21.294Z,7.71
2019-05-02T04:13:14.841Z,7.71
2019-05-02T04:14:23.338Z,7.70
2019-05-02T04:15:14.672Z,7.70
2019-05-02T04:16:17.472Z,7.70
2019-05-02T04:17:14.506Z,7.74
2019-05-02T04:18:15.253Z,7.77
2019-05-02T04:19:14.397Z,7.79
2019-05-02T04:20:14.253Z,7.77
2019-05-02T04:21:14.176Z,7.82
2019-05-02T04:22:14.183Z,7.86
2019-05-02T04:23:14.001Z,7.81
2019-05-02T04:24:15.989Z,7.84
2019-05-02T04:25:13.829Z,7.84
2019-05-02T04:26:14.478Z,7.82
2019-05-02T04:27:13.688Z,7.92
2019-05-02T04:28:14.436Z,7.89
2019-05-02T04:29:13.510Z,7.91
2019-05-02T04:30:14.209Z,7.94
2019-05-02T04:31:13.329Z,7.96
2019-05-02T04:32:14.570Z,7.99
2019-05-02T04:33:13.157Z,7.91
2019-05-02T04:34:15.364Z,7.96
2019-05-02T04:35:13.041Z,8.06
2019-05-02T04:36:15.870Z,8.00
2019-05-02T04:37:12.822Z,8.00
2019-05-02T04:38:20.237Z,7.94
2019-05-02T04:39:17.736Z,8.02
2019-05-02T04:40:12.706Z,8.06
2019-05-02T04:41:18.941Z,8.03
2019-05-02T04:42:18.740Z,8.12
2019-05-02T04:43:12.319Z,8.07
2019-05-02T04:44:12.288Z,8.13
2019-05-02T04:45:24.828Z,8.10
2019-05-02T04:46:21.983Z,8.13
2019-05-02T04:47:17.387Z,8.20
2019-05-02T04:48:11.903Z,8.25
2019-05-02T04:49:12.834Z,8.13
2019-05-02T04:50:18.232Z,8.29
2019-05-02T04:51:16.459Z,8.37
2019-05-02T04:52:14.673Z,8.40
2019-05-02T04:53:11.499Z,8.40
2019-05-02T04:54:22.060Z,8.42
2019-05-02T04:55:21.153Z,8.40
2019-05-02T04:56:11.345Z,8.50
2019-05-02T04:57:11.146Z,8.55
2019-05-02T04:58:11.155Z,8.49
2019-05-02T04:59:17.908Z,8.50
2019-05-02T05:00:11.938Z,8.64
2019-05-02T05:01:10.811Z,8.55
2019-05-02T05:02:10.772Z,8.65
2019-05-02T05:03:15.472Z,8.68
2019-05-02T05:04:10.585Z,8.65
2019-05-02T05:05:10.495Z,8.68
2019-05-02T05:06:12.317Z,8.71
2019-05-02T05:07:10.308Z,8.70
2019-05-02T05:08:10.231Z,8.76
2019-05-02T05:09:14.606Z,8.80
2019-05-02T05:10:10.080Z,8.85
2019-05-02T05:11:13.903Z,8.93
2019-05-02T05:12:09.918Z,9.01
2019-05-02T05:13:12.099Z,8.96
2019-05-02T05:14:09.993Z,9.16
2019-05-02T05:15:15.175Z,9.16
2019-05-02T05:16:15.308Z,9.12
2019-05-02T05:17:09.479Z,9.00
2019-05-02T05:18:12.690Z,9.20
2019-05-02T05:19:09.312Z,9.22
2019-05-02T05:20:14.232Z,9.23
2019-05-02T05:21:10.694Z,9.32
2019-05-02T05:22:11.954Z,9.26
2019-05-02T05:23:08.978Z,9.31
2019-05-02T05:24:09.063Z,9.24
2019-05-02T05:25:12.375Z,9.26
2019-05-02T05:26:08.749Z,9.27
2019-05-02T05:27:13.102Z,9.38
2019-05-02T05:28:09.044Z,9.34
2019-05-02T05:29:08.495Z,9.34
2019-05-02T05:30:15.207Z,9.48
2019-05-02T05:31:09.335Z,9.52
2019-05-02T05:32:10.161Z,9.59
2019-05-02T05:33:10.300Z,9.62
2019-05-02T05:34:09.791Z,9.50
2019-05-02T05:35:09.068Z,9.59
2019-05-02T05:36:08.414Z,9.67
2019-05-02T05:37:09.390Z,9.70
2019-05-02T05:38:07.853Z,9.74
2019-05-02T05:39:11.568Z,9.65
2019-05-02T05:40:08.343Z,9.77
2019-05-02T05:41:08.965Z,9.75
2019-05-02T05:42:08.378Z,9.70
2019-05-02T05:43:13.701Z,9.74
2019-05-02T05:44:07.786Z,9.65
2019-05-02T05:45:11.931Z,9.83
2019-05-02T05:46:12.290Z,9.77
2019-05-02T05:47:07.411Z,9.85
2019-05-02T05:48:08.302Z,9.80
2019-05-02T05:49:12.476Z,9.83
2019-05-02T05:50:08.260Z,9.93
2019-05-02T05:51:07.249Z,9.89
2019-05-02T05:52:08.061Z,9.95
2019-05-02T05:53:07.952Z,9.95
2019-05-02T05:54:07.777Z,10.06
2019-05-02T05:55:07.867Z,10.07
2019-05-02T05:56:07.983Z,10.07
2019-05-02T05:57:07.612Z,10.13
2019-05-02T05:58:13.157Z,10.13
2019-05-02T05:59:07.798Z,10.20
2019-05-02T06:00:11.870Z,10.20
2019-05-02T06:01:09.849Z,10.16
2019-05-02T06:02:13.081Z,10.20
2019-05-02T06:03:13.137Z,10.10
2019-05-02T06:04:07.931Z,9.98
2019-05-02T06:05:05.510Z,9.99
2019-05-02T06:06:05.477Z,10.01
2019-05-02T06:07:07.273Z,9.99
2019-05-02T06:08:05.295Z,9.96
2019-05-02T06:09:05.170Z,9.99
2019-05-02T06:10:08.016Z,10.06
2019-05-02T06:11:05.006Z,10.14
2019-05-02T06:12:05.007Z,10.13
2019-05-02T06:13:05.298Z,10.14
2019-05-02T06:14:04.850Z,10.24
2019-05-02T06:15:04.687Z,10.36
2019-05-02T06:16:04.701Z,10.36
2019-05-02T06:17:04.534Z,10.38
2019-05-02T06:18:04.989Z,10.39
2019-05-02T06:19:04.340Z,10.32
2019-05-02T06:20:04.346Z,10.42
2019-05-02T06:21:08.808Z,10.52
2019-05-02T06:22:04.122Z,10.54
2019-05-02T06:23:04.012Z,10.54
2019-05-02T06:24:03.931Z,10.58
2019-05-02T06:25:08.426Z,10.54
2019-05-02T06:26:07.746Z,10.51
2019-05-02T06:27:03.686Z,10.65
2019-05-02T06:28:05.443Z,10.58
2019-05-02T06:29:03.515Z,10.60
2019-05-02T06:30:03.469Z,10.55
2019-05-02T06:31:07.143Z,10.57
2019-05-02T06:32:03.269Z,10.54
2019-05-02T06:33:03.194Z,10.60
2019-05-02T06:34:07.064Z,10.55
2019-05-02T06:35:03.025Z,10.54
2019-05-02T06:36:03.145Z,10.66
2019-05-02T06:37:02.856Z,10.62
2019-05-02T06:38:02.782Z,10.73
2019-05-02T06:39:02.692Z,10.73
2019-05-02T06:40:03.189Z,10.72
2019-05-02T06:41:02.573Z,10.78
2019-05-02T06:42:02.448Z,10.66
2019-05-02T06:43:04.173Z,10.78
2019-05-02T06:44:02.357Z,10.76
2019-05-02T06:45:02.205Z,10.70
2019-05-02T06:46:14.962Z,10.70
2019-05-02T06:47:04.371Z,10.70
2019-05-02T06:48:01.983Z,10.76
2019-05-02T06:49:01.872Z,10.69
2019-05-02T06:50:02.754Z,10.69
2019-05-02T06:51:02.114Z,10.83
2019-05-02T06:52:01.710Z,10.90
2019-05-02T06:53:04.426Z,10.86
2019-05-02T06:54:01.461Z,10.91
2019-05-02T06:55:01.384Z,10.93
2019-05-02T06:56:01.310Z,10.95
2019-05-02T06:57:01.214Z,10.94
2019-05-02T06:58:02.853Z,11.02
2019-05-02T06:59:01.045Z,11.09
2019-05-02T07:00:00.966Z,11.09
2019-05-02T07:01:05.382Z,11.08
2019-05-02T07:02:00.799Z,11.20
2019-05-02T07:03:04.903Z,11.24
2019-05-02T07:04:03.827Z,11.23
2019-05-02T07:05:00.562Z,11.12
2019-05-02T07:06:02.754Z,11.21
2019-05-02T07:07:00.764Z,11.26
2019-05-02T07:08:00.401Z,11.27
2019-05-02T07:09:00.230Z,11.31
2019-05-02T07:10:00.184Z,11.36
2019-05-02T07:11:01.244Z,11.46
2019-05-02T07:12:01.563Z,11.44
2019-05-02T07:13:10.102Z,11.38
2019-05-02T07:14:12.446Z,11.36
2019-05-02T07:15:01.667Z,11.46
2019-05-02T07:16:01.186Z,11.51
2019-05-02T07:16:59.585Z,11.49
2019-05-02T07:17:59.524Z,11.51
2019-05-02T07:18:59.410Z,11.49
2019-05-02T07:20:03.867Z,11.54
2019-05-02T07:20:59.248Z,11.59
2019-05-02T07:22:04.059Z,11.48
2019-05-02T07:22:59.078Z,11.48
2019-05-02T07:23:58.998Z,11.62
2019-05-02T07:25:01.938Z,11.66
2019-05-02T07:26:00.330Z,11.72
2019-05-02T07:27:01.832Z,11.64
2019-05-02T07:27:58.675Z,11.72
2019-05-02T07:28:58.589Z,11.66
2019-05-02T07:29:59.716Z,11.69
2019-05-02T07:30:58.440Z,11.74
2019-05-02T07:31:58.359Z,11.79
2019-05-02T07:33:01.187Z,11.84
2019-05-02T07:33:58.182Z,11.94
2019-05-02T07:34:58.105Z,12.08
2019-05-02T07:36:00.180Z,12.00
2019-05-02T07:36:57.969Z,12.26
2019-05-02T07:37:57.863Z,12.26
2019-05-02T07:39:04.976Z,12.25
2019-05-02T07:39:57.703Z,12.29
2019-05-02T07:40:57.613Z,12.31
2019-05-02T07:42:00.504Z,12.29
2019-05-02T07:42:57.452Z,12.38
2019-05-02T07:43:57.562Z,12.46
2019-05-02T07:44:57.294Z,12.33
2019-05-02T07:45:57.215Z,12.31
2019-05-02T07:47:02.603Z,12.08
2019-05-02T07:47:57.046Z,12.21
2019-05-02T07:48:56.970Z,12.21
2019-05-02T07:49:56.884Z,12.04
2019-05-02T07:50:57.098Z,12.07
2019-05-02T07:51:57.618Z,12.03
2019-05-02T07:52:56.640Z,12.13
2019-05-02T07:53:56.566Z,12.19
2019-05-02T07:55:01.142Z,12.29
2019-05-02T07:55:56.393Z,12.22
2019-05-02T07:56:56.350Z,12.25
2019-05-02T07:57:56.245Z,12.29
2019-05-02T07:58:56.155Z,12.22
2019-05-02T08:00:00.510Z,12.08
2019-05-02T08:00:56.021Z,12.19
2019-05-02T08:01:55.933Z,12.30
2019-05-02T08:02:58.039Z,12.26
2019-05-02T08:03:55.749Z,12.31
2019-05-02T08:04:55.667Z,12.30
2019-05-02T08:05:58.619Z,12.30
2019-05-02T08:06:55.511Z,12.40
2019-05-02T08:07:55.452Z,12.33
2019-05-02T08:08:55.349Z,12.38
2019-05-02T08:09:55.270Z,12.29
2019-05-02T08:11:01.618Z,12.30
2019-05-02T08:11:55.107Z,12.23
2019-05-02T08:12:55.033Z,12.29
2019-05-02T08:13:58.815Z,12.30
2019-05-02T08:14:54.859Z,12.30
2019-05-02T08:15:54.782Z,12.30
2019-05-02T08:17:05.001Z,12.29
2019-05-02T08:17:55.307Z,12.26
2019-05-02T08:18:54.533Z,12.31
2019-05-02T08:19:54.454Z,12.19
2019-05-02T08:20:56.097Z,12.25
2019-05-02T08:21:54.302Z,12.26
2019-05-02T08:22:54.224Z,12.31
2019-05-02T08:23:57.060Z,12.26
2019-05-02T08:24:54.045Z,12.37
2019-05-02T08:25:53.971Z,12.34
2019-05-02T08:26:58.260Z,12.25
2019-05-02T08:27:53.824Z,12.29
2019-05-02T08:28:53.726Z,12.37
2019-05-02T08:29:53.648Z,12.30
2019-05-02T08:30:53.561Z,12.33
2019-05-02T08:31:53.487Z,12.31
2019-05-02T08:32:53.412Z,12.41
2019-05-02T08:33:53.747Z,12.36
2019-05-02T08:34:53.504Z,12.40
2019-05-02T08:35:53.155Z,12.38
2019-05-02T08:36:53.083Z,12.33
2019-05-02T08:37:55.855Z,12.38
2019-05-02T08:38:53.604Z,12.40
2019-05-02T08:39:52.839Z,12.36
2019-05-02T08:40:52.750Z,12.52
2019-05-02T08:41:56.350Z,12.43
2019-05-02T08:42:52.605Z,12.38
2019-05-02T08:43:52.511Z,12.31
2019-05-02T08:44:56.278Z,12.30
2019-05-02T08:45:52.345Z,12.34
2019-05-02T08:46:53.292Z,12.41
2019-05-02T08:47:52.218Z,12.51
2019-05-02T08:48:52.109Z,12.54
2019-05-02T08:49:54.918Z,12.54
2019-05-02T08:50:51.950Z,12.59
2019-05-02T08:51:51.864Z,12.59
2019-05-02T08:52:51.798Z,12.58
2019-05-02T08:53:52.186Z,12.56
2019-05-02T08:54:51.616Z,12.38
2019-05-02T08:55:51.542Z,12.29
2019-05-02T08:56:53.434Z,12.43
2019-05-02T08:57:51.397Z,12.36
2019-05-02T08:58:51.290Z,12.30
2019-05-02T08:59:55.378Z,12.37
2019-05-02T09:00:51.135Z,12.41
2019-05-02T09:01:51.428Z,12.52
2019-05-02T09:02:50.979Z,12.56
2019-05-02T09:03:55.186Z,12.58
2019-05-02T09:04:58.260Z,12.61
2019-05-02T09:05:50.727Z,12.67
2019-05-02T09:06:53.132Z,12.69
2019-05-02T09:07:50.580Z,12.74
2019-05-02T09:08:51.271Z,12.70
2019-05-02T09:09:50.408Z,12.84
2019-05-02T09:10:50.316Z,12.94
2019-05-02T09:12:06.827Z,12.98
2019-05-02T09:12:52.041Z,13.13
2019-05-02T09:13:50.087Z,13.13
2019-05-02T09:14:51.963Z,13.35
2019-05-02T09:15:53.602Z,13.21
2019-05-02T09:16:52.110Z,13.22
2019-05-02T09:17:54.905Z,13.25
2019-05-02T09:18:51.905Z,13.28
2019-05-02T09:20:00.274Z,13.35
2019-05-02T09:20:52.548Z,13.46
2019-05-02T09:21:49.435Z,13.62
2019-05-02T09:22:52.225Z,13.81
2019-05-02T09:23:49.303Z,13.87
2019-05-02T09:24:49.196Z,13.88
2019-05-02T09:25:49.111Z,14.02
2019-05-02T09:26:49.035Z,13.99
2019-05-02T09:27:48.954Z,14.06
2019-05-02T09:28:48.881Z,14.04
2019-05-02T09:29:48.799Z,13.98
2019-05-02T09:30:48.709Z,13.93
2019-05-02T09:31:48.654Z,14.16
2019-05-02T09:32:48.546Z,14.24
2019-05-02T09:33:48.490Z,14.26
2019-05-02T09:34:48.387Z,14.23
2019-05-02T09:35:48.312Z,14.29
2019-05-02T09:36:48.227Z,14.61
2019-05-02T09:37:48.164Z,14.61
2019-05-02T09:38:48.746Z,14.87
2019-05-02T09:39:47.986Z,15.07
2019-05-02T09:40:54.531Z,15.19
2019-05-02T09:41:47.828Z,15.37
2019-05-02T09:42:53.581Z,15.22
2019-05-02T09:43:47.685Z,15.13
2019-05-02T09:44:47.916Z,15.09
2019-05-02T09:45:47.516Z,15.16
2019-05-02T09:46:51.998Z,15.19
2019-05-02T09:47:59.657Z,15.33
2019-05-02T09:48:47.293Z,15.40
2019-05-02T09:49:49.187Z,15.20
2019-05-02T09:50:47.118Z,15.09
2019-05-02T09:51:50.295Z,15.27
2019-05-02T09:52:46.962Z,15.27
2019-05-02T09:53:46.902Z,15.27
2019-05-02T09:54:46.803Z,15.30
2019-05-02T09:55:50.072Z,15.33
2019-05-02T09:56:46.649Z,15.44
2019-05-02T09:57:46.573Z,15.68
2019-05-02T09:58:49.185Z,15.66
2019-05-02T09:59:50.604Z,15.84
2019-05-02T10:00:46.332Z,16.07
2019-05-02T10:01:46.253Z,16.17
2019-05-02T10:02:46.174Z,16.37
2019-05-02T10:03:46.111Z,16.50
2019-05-02T10:04:46.038Z,16.81
2019-05-02T10:05:45.943Z,16.95
2019-05-02T10:06:45.860Z,17.05
2019-05-02T10:07:48.491Z,17.28
2019-05-02T10:08:46.753Z,17.30
2019-05-02T10:09:45.637Z,17.65
2019-05-02T10:10:46.161Z,17.66
2019-05-02T10:11:45.484Z,17.73
2019-05-02T10:12:45.403Z,17.81
2019-05-02T10:13:45.355Z,17.73
2019-05-02T10:14:45.255Z,17.57
2019-05-02T10:15:45.188Z,17.65
2019-05-02T10:16:45.112Z,17.46
2019-05-02T10:17:46.855Z,17.57
2019-05-02T10:18:44.967Z,17.68
2019-05-02T10:19:49.210Z,17.68
2019-05-02T10:20:44.811Z,17.60
2019-05-02T10:21:46.937Z,17.62
2019-05-02T10:22:44.684Z,17.71
2019-05-02T10:23:44.612Z,18.02
2019-05-02T10:24:44.520Z,18.02
2019-05-02T10:25:46.759Z,17.92
2019-05-02T10:26:44.371Z,17.45
2019-05-02T10:27:47.484Z,17.65
2019-05-02T10:28:49.331Z,17.62
2019-05-02T10:29:44.163Z,17.60
2019-05-02T10:30:47.283Z,17.27
2019-05-02T10:31:44.008Z,17.03
2019-05-02T10:32:47.232Z,16.25
2019-05-02T10:33:43.861Z,16.36
2019-05-02T10:34:47.679Z,16.44
2019-05-02T10:35:43.771Z,16.81
2019-05-02T10:36:45.481Z,16.92
2019-05-02T10:37:43.572Z,17.05
2019-05-02T10:38:43.500Z,17.32
2019-05-02T10:39:43.486Z,17.36
2019-05-02T10:40:43.339Z,17.47
2019-05-02T10:41:43.832Z,17.71
2019-05-02T10:42:43.192Z,18.19
2019-05-02T10:43:46.961Z,18.65
2019-05-02T10:44:43.060Z,18.90
2019-05-02T10:45:47.463Z,18.83
2019-05-02T10:46:42.893Z,18.72
2019-05-02T10:47:42.834Z,18.87
2019-05-02T10:48:42.748Z,18.99
2019-05-02T10:49:42.756Z,18.84
2019-05-02T10:50:42.614Z,18.89
2019-05-02T10:51:48.999Z,18.89
2019-05-02T10:52:42.584Z,18.89
2019-05-02T10:53:42.514Z,18.71
2019-05-02T10:54:42.339Z,18.57
2019-05-02T10:55:42.650Z,18.60
2019-05-02T10:56:42.419Z,18.54
2019-05-02T10:57:42.204Z,18.26
2019-05-02T10:58:42.607Z,18.13
2019-05-02T10:59:42.125Z,17.98
2019-05-02T11:00:45.084Z,18.09
2019-05-02T11:01:41.812Z,18.04
2019-05-02T11:02:41.943Z,17.81
2019-05-02T11:03:43.752Z,18.17
2019-05-02T11:04:42.134Z,18.38
2019-05-02T11:05:42.049Z,18.71
2019-05-02T11:06:42.578Z,18.99
2019-05-02T11:07:41.959Z,19.31
2019-05-02T11:08:44.628Z,19.23
2019-05-02T11:09:42.313Z,19.15
2019-05-02T11:10:42.302Z,18.60
2019-05-02T11:11:42.504Z,18.72
2019-05-02T11:12:46.217Z,18.68
2019-05-02T11:13:42.498Z,18.34
2019-05-02T11:14:42.182Z,18.26
2019-05-02T11:15:41.857Z,18.11
2019-05-02T11:16:42.278Z,17.91
2019-05-02T11:17:42.322Z,17.89
2019-05-02T11:18:43.053Z,17.74
2019-05-02T11:19:41.984Z,17.70
2019-05-02T11:20:42.089Z,17.87
2019-05-02T11:21:53.583Z,17.77
2019-05-02T11:22:40.282Z,17.94
2019-05-02T11:23:41.927Z,17.91
2019-05-02T11:24:41.800Z,17.98
2019-05-02T11:25:42.065Z,18.09
2019-05-02T11:26:39.999Z,18.21
2019-05-02T11:27:41.753Z,18.46
2019-05-02T11:28:41.570Z,18.59
2019-05-02T11:29:39.783Z,18.72
2019-05-02T11:30:41.874Z,18.68
2019-05-02T11:31:39.615Z,18.60
2019-05-02T11:32:41.628Z,18.72
2019-05-02T11:33:39.472Z,18.60
2019-05-02T11:34:39.408Z,18.75
2019-05-02T11:35:41.620Z,18.90
2019-05-02T11:36:39.257Z,18.79
2019-05-02T11:37:39.174Z,18.74
2019-05-02T11:38:45.205Z,18.44
2019-05-02T11:39:46.238Z,18.38
2019-05-02T11:40:38.971Z,18.46
2019-05-02T11:41:38.890Z,18.44
2019-05-02T11:42:38.804Z,18.11
2019-05-02T11:43:42.442Z,18.04
2019-05-02T11:44:38.671Z,18.09
2019-05-02T11:45:38.600Z,18.32
2019-05-02T11:46:42.956Z,18.62
2019-05-02T11:47:38.445Z,18.75
2019-05-02T11:48:38.373Z,18.97
2019-05-02T11:49:38.301Z,18.91
2019-05-02T11:50:38.234Z,19.07
2019-05-02T11:51:38.175Z,19.15
2019-05-02T11:52:38.074Z,19.30
2019-05-02T11:53:38.009Z,19.45
2019-05-02T11:54:39.309Z,19.24
2019-05-02T11:55:37.866Z,18.89
2019-05-02T11:56:42.933Z,18.57
2019-05-02T11:57:37.720Z,18.74
2019-05-02T11:58:42.441Z,18.65
2019-05-02T11:59:37.568Z,18.71
2019-05-02T12:00:39.800Z,18.87
2019-05-02T12:01:39.791Z,18.96
2019-05-02T12:02:37.347Z,19.12
2019-05-02T12:03:37.269Z,19.32
2019-05-02T12:04:37.199Z,19.53
2019-05-02T12:05:39.279Z,19.30
2019-05-02T12:06:37.061Z,19.10
2019-05-02T12:07:36.989Z,19.15
2019-05-02T12:08:39.491Z,19.12
2019-05-02T12:09:36.850Z,19.12
2019-05-02T12:10:36.908Z,19.07
2019-05-02T12:11:36.692Z,19.06
2019-05-02T12:12:36.632Z,18.97
2019-05-02T12:13:36.551Z,19.10
2019-05-02T12:14:36.612Z,19.40
2019-05-02T12:15:36.431Z,19.75
2019-05-02T12:16:36.335Z,19.78
2019-05-02T12:17:36.270Z,20.10
2019-05-02T12:18:36.194Z,20.35
2019-05-02T12:19:36.128Z,20.71
2019-05-02T12:20:36.853Z,20.73
2019-05-02T12:21:39.046Z,20.82
2019-05-02T12:22:35.916Z,20.90
2019-05-02T12:23:36.310Z,21.00
2019-05-02T12:24:36.346Z,20.85
2019-05-02T12:25:35.720Z,20.54
2019-05-02T12:26:35.625Z,20.46
2019-05-02T12:27:35.557Z,20.12
2019-05-02T12:28:35.494Z,20.10
2019-05-02T12:29:35.418Z,20.02
2019-05-02T12:30:37.634Z,19.97
2019-05-02T12:31:35.285Z,19.92
2019-05-02T12:32:35.201Z,19.85
2019-05-02T12:33:35.141Z,19.90
2019-05-02T12:34:35.061Z,19.83
2019-05-02T12:35:35.005Z,19.62
2019-05-02T12:36:34.944Z,19.47
2019-05-02T12:37:34.848Z,19.42
2019-05-02T12:38:34.777Z,19.35
2019-05-02T12:39:34.713Z,19.27
2019-05-02T12:40:34.640Z,19.32
2019-05-02T12:41:34.558Z,19.32
2019-05-02T12:42:34.841Z,19.62
2019-05-02T12:43:34.409Z,19.70
2019-05-02T12:44:34.344Z,19.65
2019-05-02T12:45:34.278Z,19.70
2019-05-02T12:46:34.192Z,19.55
2019-05-02T12:47:34.123Z,19.43
2019-05-02T12:48:34.044Z,19.43
2019-05-02T12:49:33.972Z,19.32
2019-05-02T12:50:33.918Z,19.23
2019-05-02T12:51:33.824Z,19.05
2019-05-02T12:52:33.749Z,19.15
2019-05-02T12:53:33.683Z,19.30
2019-05-02T12:54:33.600Z,19.30
2019-05-02T12:55:33.708Z,19.42
2019-05-02T12:56:33.460Z,19.30
2019-05-02T12:57:33.381Z,19.45
2019-05-02T12:58:33.315Z,19.46
2019-05-02T12:59:33.229Z,19.65
2019-05-02T13:00:33.172Z,19.82
2019-05-02T13:01:33.303Z,19.92
2019-05-02T13:02:33.016Z,20.04
2019-05-02T13:03:32.938Z,20.01